createdAt,value
2023-04-18T00:00:10.322Z,64.25
2023-04-18T00:02:40.188Z,64.58
2023-04-18T00:05:09.638Z,64.47
2023-04-18T00:07:37.692Z,64.41
2023-04-18T00:10:08.424Z,64.61
2023-04-18T00:12:36.919Z,65.17
2023-04-18T00:15:07.313Z,64.96
2023-04-18T00:17:35.676Z,65.31
2023-04-18T00:20:07.249Z,64.83
2023-04-18T00:22:35.761Z,65.09
2023-04-18T00:25:04.078Z,66.12
2023-04-18T00:27:33.464Z,65.21
2023-04-18T00:30:01.587Z,65.14
2023-04-18T00:32:30.004Z,65.95
2023-04-18T00:35:00.497Z,65.24
2023-04-18T00:37:28.625Z,66.50
2023-04-18T00:39:56.906Z,66.09
2023-04-18T00:42:25.992Z,66.71
2023-04-18T00:44:57.884Z,66.38
2023-04-18T00:47:26.982Z,65.94
2023-04-18T00:49:55.948Z,67.42
2023-04-18T00:52:27.155Z,68.01
2023-04-18T00:54:56.624Z,67.18
2023-04-18T00:57:25.510Z,68.19
2023-04-18T00:59:55.030Z,69.08
2023-04-18T01:02:26.160Z,68.56
2023-04-18T01:04:54.792Z,67.76
2023-04-18T01:07:23.208Z,67.66
2023-04-18T01:09:51.707Z,68.76
2023-04-18T01:12:22.088Z,67.56
2023-04-18T01:14:50.083Z,68.04
2023-04-18T01:17:20.000Z,67.90
2023-04-18T01:19:48.107Z,68.45
2023-04-18T01:22:16.104Z,67.39
2023-04-18T01:24:45.727Z,65.58
2023-04-18T01:27:14.314Z,67.25
2023-04-18T01:29:42.391Z,66.40
2023-04-18T01:32:10.725Z,65.89
2023-04-18T01:34:38.807Z,66.99
2023-04-18T01:37:06.950Z,66.28
2023-04-18T01:39:38.029Z,66.87
2023-04-18T01:42:07.471Z,66.48
2023-04-18T01:44:35.746Z,65.61
2023-04-18T01:47:03.702Z,66.55
2023-04-18T01:49:33.929Z,65.70
2023-04-18T01:52:02.221Z,65.49
2023-04-18T01:54:30.208Z,65.07
2023-04-18T01:56:58.182Z,64.97
2023-04-18T01:59:27.830Z,65.45
2023-04-18T02:01:55.957Z,66.63
2023-04-18T02:04:26.555Z,65.61
2023-04-18T02:06:54.740Z,65.16
2023-04-18T02:09:22.849Z,65.02
2023-04-18T02:11:56.219Z,65.29
2023-04-18T02:14:24.733Z,65.93
2023-04-18T02:16:54.467Z,66.29
2023-04-18T02:19:22.612Z,65.57
2023-04-18T02:21:50.791Z,65.58
2023-04-18T02:24:19.379Z,66.47
2023-04-18T02:26:47.379Z,65.83
2023-04-18T02:29:15.457Z,66.23
2023-04-18T02:31:43.937Z,65.88
2023-04-18T02:34:17.561Z,65.52
2023-04-18T02:36:48.643Z,65.28
2023-04-18T02:39:16.694Z,65.75
2023-04-18T02:41:44.739Z,64.72
2023-04-18T02:44:13.329Z,64.41
2023-04-18T02:46:41.427Z,64.68
2023-04-18T02:49:09.972Z,64.81
2023-04-18T02:51:39.693Z,64.44
2023-04-18T02:54:07.933Z,64.48
2023-04-18T02:56:40.079Z,64.19
2023-04-18T02:59:11.087Z,63.85
2023-04-18T03:01:40.337Z,64.84
2023-04-18T03:04:08.718Z,65.14
2023-04-18T03:06:38.922Z,65.02
2023-04-18T03:09:07.400Z,64.04
2023-04-18T03:11:36.544Z,64.11
2023-04-18T03:14:07.295Z,63.94
2023-04-18T03:16:35.752Z,63.96
2023-04-18T03:19:04.549Z,64.53
2023-04-18T03:21:33.776Z,64.37
2023-04-18T03:24:04.021Z,64.28
2023-04-18T03:26:35.256Z,64.71
2023-04-18T03:29:03.974Z,64.43
2023-04-18T03:31:33.457Z,64.00
2023-04-18T03:34:01.802Z,64.66
2023-04-18T03:36:31.379Z,63.87
2023-04-18T03:38:59.921Z,63.39
2023-04-18T03:41:30.924Z,64.50
2023-04-18T03:43:59.413Z,64.49
2023-04-18T03:46:28.989Z,64.37
2023-04-18T03:48:57.921Z,64.38
2023-04-18T03:51:26.410Z,64.67
2023-04-18T03:53:54.503Z,64.41
2023-04-18T03:56:24.329Z,64.22
2023-04-18T03:58:54.254Z,64.36
2023-04-18T04:01:22.625Z,64.03
2023-04-18T04:03:52.241Z,64.05
2023-04-18T04:06:21.075Z,64.07
2023-04-18T04:08:49.319Z,64.20
2023-04-18T04:11:19.120Z,63.71
2023-04-18T04:13:47.265Z,63.66
2023-04-18T04:16:17.854Z,63.63
2023-04-18T04:18:46.962Z,63.53
2023-04-18T04:21:15.761Z,64.12
2023-04-18T04:23:44.198Z,63.29
2023-04-18T04:26:15.114Z,63.26
2023-04-18T04:28:46.567Z,63.67
2023-04-18T04:31:17.197Z,63.78
2023-04-18T04:33:45.566Z,64.22
2023-04-18T04:36:18.562Z,63.70
2023-04-18T04:38:48.240Z,63.31
2023-04-18T04:41:16.716Z,63.76
2023-04-18T04:43:46.573Z,63.70
2023-04-18T04:46:20.137Z,63.98
2023-04-18T04:48:50.169Z,63.47
2023-04-18T04:51:19.931Z,62.94
2023-04-18T04:53:48.099Z,63.26
2023-04-18T04:56:16.198Z,63.39
2023-04-18T04:58:45.154Z,64.13
2023-04-18T05:01:13.732Z,63.25
2023-04-18T05:03:43.747Z,63.14
2023-04-18T05:06:12.309Z,63.38
2023-04-18T05:08:40.429Z,63.23
2023-04-18T05:11:08.428Z,63.73
2023-04-18T05:13:36.687Z,63.93
2023-04-18T05:16:05.923Z,63.96
2023-04-18T05:18:35.000Z,64.15
2023-04-18T05:21:05.030Z,63.65
2023-04-18T05:23:34.872Z,64.11
2023-04-18T05:26:03.020Z,63.75
2023-04-18T05:28:31.349Z,63.45
2023-04-18T05:31:02.055Z,63.03
2023-04-18T05:33:30.772Z,63.09
2023-04-18T05:35:59.800Z,64.41
2023-04-18T05:38:29.216Z,64.04
2023-04-18T05:41:00.234Z,64.11
2023-04-18T05:43:28.658Z,63.82
2023-04-18T05:45:57.872Z,64.24
2023-04-18T05:48:28.835Z,64.38
2023-04-18T05:50:58.120Z,63.96
2023-04-18T05:53:27.154Z,63.78
2023-04-18T05:56:02.214Z,63.39
2023-04-18T05:58:31.517Z,62.79
2023-04-18T06:00:59.618Z,62.08
2023-04-18T06:03:28.424Z,62.11
2023-04-18T06:05:56.643Z,61.91
2023-04-18T06:08:24.662Z,61.68
2023-04-18T06:10:52.819Z,61.49
2023-04-18T06:13:22.067Z,61.72
2023-04-18T06:15:50.168Z,61.34
2023-04-18T06:18:18.427Z,61.52
2023-04-18T06:20:46.413Z,61.20
2023-04-18T06:23:14.370Z,61.18
2023-04-18T06:25:43.062Z,61.08
2023-04-18T06:28:11.160Z,60.96
2023-04-18T06:30:40.442Z,61.14
2023-04-18T06:33:10.467Z,60.94
2023-04-18T06:35:39.088Z,61.01
2023-04-18T06:38:07.178Z,60.92
2023-04-18T06:40:35.693Z,61.10
2023-04-18T06:43:03.939Z,60.73
2023-04-18T06:45:34.928Z,61.45
2023-04-18T06:48:06.021Z,61.23
2023-04-18T06:50:34.478Z,60.69
2023-04-18T06:53:02.642Z,61.02
2023-04-18T06:55:31.032Z,60.63
2023-04-18T06:58:00.437Z,60.29
2023-04-18T07:00:28.622Z,60.54
2023-04-18T07:03:03.161Z,60.37
2023-04-18T07:05:32.988Z,60.24
2023-04-18T07:08:01.688Z,59.79
2023-04-18T07:10:31.669Z,59.41
2023-04-18T07:12:59.789Z,58.81
2023-04-18T07:15:28.383Z,59.71
2023-04-18T07:17:56.600Z,59.88
2023-04-18T07:20:24.757Z,59.75
2023-04-18T07:22:57.045Z,58.93
2023-04-18T07:25:25.233Z,58.26
2023-04-18T07:27:53.826Z,57.61
2023-04-18T07:30:22.022Z,58.69
2023-04-18T07:32:50.454Z,58.44
2023-04-18T07:35:19.214Z,57.77
2023-04-18T07:37:49.079Z,57.56
2023-04-18T07:40:18.674Z,57.86
2023-04-18T07:42:47.250Z,56.98
2023-04-18T07:45:15.938Z,58.07
2023-04-18T07:47:44.315Z,57.39
2023-04-18T07:50:12.940Z,56.34
2023-04-18T07:52:41.172Z,56.22
2023-04-18T07:55:10.344Z,54.78
2023-04-18T07:57:40.075Z,55.36
2023-04-18T08:00:09.527Z,55.67
2023-04-18T08:02:41.816Z,55.59
2023-04-18T08:05:10.836Z,55.81
2023-04-18T08:07:39.089Z,53.94
2023-04-18T08:10:08.452Z,55.51
2023-04-18T08:12:37.176Z,55.28
2023-04-18T08:15:07.753Z,55.04
2023-04-18T08:17:36.004Z,52.62
2023-04-18T08:20:07.409Z,53.94
2023-04-18T08:22:38.936Z,52.57
2023-04-18T08:25:13.058Z,54.26
2023-04-18T08:27:41.240Z,53.83
2023-04-18T08:30:11.825Z,52.31
2023-04-18T08:32:43.228Z,52.82
2023-04-18T08:35:11.526Z,54.32
2023-04-18T08:37:40.218Z,53.93
2023-04-18T08:40:09.535Z,54.29
2023-04-18T08:42:38.379Z,54.36
2023-04-18T08:45:09.285Z,54.76
2023-04-18T08:47:38.874Z,54.21
2023-04-18T08:50:11.118Z,54.28
2023-04-18T08:52:40.706Z,54.08
2023-04-18T08:55:10.462Z,51.82
2023-04-18T08:57:38.514Z,52.59
2023-04-18T09:00:10.034Z,52.06
2023-04-18T09:02:43.851Z,52.73
2023-04-18T09:05:15.135Z,53.36
2023-04-18T09:07:44.451Z,53.38
2023-04-18T09:10:15.663Z,53.42
2023-04-18T09:12:50.667Z,52.56
2023-04-18T09:15:22.610Z,53.08
2023-04-18T09:18:01.491Z,52.72
2023-04-18T09:20:35.767Z,52.00
2023-04-18T09:23:11.516Z,53.52
2023-04-18T09:25:46.470Z,53.61
2023-04-18T09:28:27.023Z,51.77
2023-04-18T09:30:56.663Z,51.53
2023-04-18T09:33:32.595Z,53.01
2023-04-18T09:36:19.144Z,50.27
2023-04-18T09:38:48.479Z,51.17
2023-04-18T09:41:22.559Z,52.14
2023-04-18T09:43:52.197Z,52.58
2023-04-18T09:46:22.626Z,53.58
2023-04-18T09:48:52.965Z,53.75
2023-04-18T09:51:21.541Z,52.51
2023-04-18T09:53:51.029Z,53.46
2023-04-18T09:56:25.655Z,52.35
2023-04-18T09:59:01.030Z,53.01
2023-04-18T10:01:30.134Z,52.19
2023-04-18T10:04:04.226Z,51.98
2023-04-18T10:06:42.206Z,50.78
2023-04-18T10:09:11.466Z,52.17
2023-04-18T10:11:40.410Z,52.17
2023-04-18T10:14:13.864Z,52.22
2023-04-18T10:16:45.467Z,52.10
2023-04-18T10:19:26.091Z,52.84
2023-04-18T10:22:02.486Z,50.14
2023-04-18T10:24:48.481Z,52.16
2023-04-18T10:27:17.912Z,50.59
2023-04-18T10:29:50.647Z,52.72
2023-04-18T10:32:20.162Z,52.75
2023-04-18T10:34:50.651Z,51.55
2023-04-18T10:37:19.175Z,52.36
2023-04-18T10:39:56.869Z,51.54
2023-04-18T10:42:59.043Z,51.17
2023-04-18T10:45:30.677Z,49.18
2023-04-18T10:48:27.132Z,50.30
2023-04-18T10:51:16.912Z,48.84
2023-04-18T10:53:52.866Z,50.69
2023-04-18T10:56:21.712Z,51.49
2023-04-18T10:58:52.323Z,51.83
2023-04-18T11:01:31.682Z,52.68
2023-04-18T11:04:15.549Z,51.11
2023-04-18T11:06:56.343Z,50.96
2023-04-18T11:09:25.358Z,51.92
2023-04-18T11:12:05.340Z,52.52
2023-04-18T11:14:43.684Z,50.97
2023-04-18T11:17:20.136Z,50.06
2023-04-18T11:19:48.859Z,51.85
2023-04-18T11:22:19.368Z,52.86
2023-04-18T11:24:47.633Z,52.78
2023-04-18T11:27:17.382Z,53.29
2023-04-18T11:29:45.543Z,53.41
2023-04-18T11:32:13.589Z,51.96
2023-04-18T11:34:42.214Z,52.12
2023-04-18T11:37:10.725Z,53.20
2023-04-18T11:39:44.627Z,52.59
2023-04-18T11:42:13.454Z,50.96
2023-04-18T11:44:44.076Z,52.54
2023-04-18T11:47:23.979Z,52.36
2023-04-18T11:49:59.698Z,51.03
2023-04-18T11:52:32.480Z,50.93
2023-04-18T11:55:14.178Z,52.17
2023-04-18T11:57:42.883Z,50.00
2023-04-18T12:00:12.959Z,51.79
2023-04-18T12:02:43.490Z,52.93
2023-04-18T12:05:14.626Z,52.44
2023-04-18T12:07:46.598Z,50.81
2023-04-18T12:10:28.020Z,50.89
2023-04-18T12:12:58.805Z,50.21
2023-04-18T12:15:28.670Z,51.99
2023-04-18T12:18:01.857Z,52.50
2023-04-18T12:20:38.945Z,50.09
2023-04-18T12:23:30.505Z,50.04
2023-04-18T12:26:05.793Z,49.15
2023-04-18T12:28:37.178Z,51.22
2023-04-18T12:31:07.306Z,49.53
2023-04-18T12:33:37.084Z,49.60
2023-04-18T12:36:09.637Z,50.56
2023-04-18T12:38:38.654Z,51.23
2023-04-18T12:41:09.158Z,50.70
2023-04-18T12:43:40.967Z,51.02
2023-04-18T12:46:10.553Z,51.99
2023-04-18T12:52:22.466Z,50.35
2023-04-18T12:54:51.745Z,52.66
2023-04-18T12:57:21.985Z,52.15
2023-04-18T12:59:53.637Z,52.12
2023-04-18T13:02:22.073Z,52.67
2023-04-18T13:08:08.435Z,50.65
2023-04-18T13:10:42.861Z,51.88
2023-04-18T13:13:12.284Z,52.36
2023-04-18T13:15:40.588Z,52.47
2023-04-18T13:18:08.981Z,51.88
2023-04-18T13:20:37.722Z,52.46
2023-04-18T13:23:06.364Z,51.61
2023-04-18T13:25:36.561Z,50.94
2023-04-18T13:28:14.357Z,50.97
2023-04-18T13:30:44.841Z,52.28
2023-04-18T13:33:14.493Z,52.24
2023-04-18T13:35:43.662Z,52.87
2023-04-18T13:38:12.473Z,53.03
2023-04-18T13:40:40.734Z,53.37
2023-04-18T13:43:13.905Z,53.07
2023-04-18T13:45:46.903Z,52.66
2023-04-18T13:48:16.617Z,52.88
2023-04-18T13:50:46.409Z,52.65
2023-04-18T13:53:16.372Z,52.76
2023-04-18T13:55:45.947Z,53.50
2023-04-18T13:58:14.566Z,53.77
2023-04-18T14:00:42.725Z,53.65
2023-04-18T14:03:12.694Z,53.24
2023-04-18T14:05:41.660Z,53.97
2023-04-18T14:08:10.570Z,53.37
2023-04-18T14:10:39.163Z,53.29
2023-04-18T14:13:12.410Z,53.39
2023-04-18T14:15:44.113Z,53.37
2023-04-18T14:18:13.715Z,53.07
2023-04-18T14:20:57.906Z,53.00
2023-04-18T14:23:27.805Z,53.11
2023-04-18T14:25:56.137Z,53.34
2023-04-18T14:28:25.148Z,53.17
2023-04-18T14:30:55.498Z,53.00
2023-04-18T14:33:25.300Z,53.33
2023-04-18T14:35:53.462Z,53.16
2023-04-18T14:38:21.782Z,53.09
2023-04-18T14:40:50.034Z,52.96
2023-04-18T14:43:18.009Z,53.42
2023-04-18T14:45:46.105Z,53.13
2023-04-18T14:48:14.545Z,53.90
2023-04-18T14:50:44.200Z,53.86
2023-04-18T14:53:12.953Z,54.32
2023-04-18T14:55:41.160Z,54.02
2023-04-18T14:58:09.194Z,54.38
2023-04-18T15:00:37.208Z,53.94
2023-04-18T15:03:07.224Z,54.30
2023-04-18T15:05:42.703Z,54.38
2023-04-18T15:08:12.385Z,54.94
2023-04-18T15:10:42.386Z,54.97
2023-04-18T15:13:11.318Z,54.83
2023-04-18T15:15:39.904Z,55.22
2023-04-18T15:18:09.123Z,55.21
2023-04-18T15:20:39.542Z,54.75
2023-04-18T15:23:09.756Z,55.19
2023-04-18T15:25:39.472Z,54.97
2023-04-18T15:28:07.493Z,55.27
2023-04-18T15:30:35.690Z,54.98
2023-04-18T15:33:04.619Z,55.09
2023-04-18T15:35:33.121Z,55.31
2023-04-18T15:38:01.505Z,55.43
2023-04-18T15:40:30.451Z,55.03
2023-04-18T15:43:00.209Z,55.09
2023-04-18T15:45:28.676Z,54.90
2023-04-18T15:47:57.231Z,54.81
2023-04-18T15:50:26.216Z,54.65
2023-04-18T15:52:54.346Z,54.59
2023-04-18T15:55:22.752Z,54.76
2023-04-18T15:57:53.754Z,54.59
2023-04-18T16:00:25.151Z,54.57
2023-04-18T16:02:53.649Z,54.86
2023-04-18T16:05:21.771Z,55.01
2023-04-18T16:07:49.775Z,55.10
2023-04-18T16:10:18.231Z,54.86
2023-04-18T16:12:47.337Z,55.02
2023-04-18T16:15:15.444Z,55.17
2023-04-18T16:17:45.479Z,55.02
2023-04-18T16:20:13.828Z,55.12
2023-04-18T16:22:42.139Z,55.03
2023-04-18T16:25:11.029Z,55.24
2023-04-18T16:27:39.372Z,55.00
2023-04-18T16:30:10.007Z,55.40
2023-04-18T16:32:39.059Z,55.22
2023-04-18T16:35:10.230Z,54.90
2023-04-18T16:37:38.750Z,54.85
2023-04-18T16:40:09.910Z,55.13
2023-04-18T16:42:38.386Z,54.70
2023-04-18T16:45:07.391Z,54.88
2023-04-18T16:47:35.818Z,54.75
2023-04-18T16:50:04.236Z,54.88
2023-04-18T16:52:33.885Z,54.97
2023-04-18T16:55:02.121Z,55.15
2023-04-18T16:57:30.666Z,55.25
2023-04-18T17:00:02.156Z,54.85
2023-04-18T17:02:32.345Z,54.83
2023-04-18T17:05:01.074Z,54.94
2023-04-18T17:07:29.150Z,54.84
2023-04-18T17:09:58.757Z,54.79
2023-04-18T17:12:27.149Z,54.90
2023-04-18T17:14:55.153Z,55.23
2023-04-18T17:17:24.350Z,55.53
2023-04-18T17:19:52.363Z,55.64
2023-04-18T17:22:20.516Z,55.64
2023-04-18T17:24:49.001Z,55.95
2023-04-18T17:27:18.727Z,56.22
2023-04-18T17:29:46.919Z,55.76
2023-04-18T17:32:15.380Z,55.75
2023-04-18T17:34:43.688Z,55.79
2023-04-18T17:37:12.466Z,55.82
2023-04-18T17:39:40.782Z,55.76
2023-04-18T17:42:08.781Z,55.60
2023-04-18T17:44:39.732Z,55.76
2023-04-18T17:47:08.332Z,56.11
2023-04-18T17:49:36.405Z,55.91
2023-04-18T17:52:04.994Z,55.85
2023-04-18T17:54:33.811Z,55.78
2023-04-18T17:57:01.951Z,55.80
2023-04-18T17:59:30.288Z,56.04
2023-04-18T18:02:00.089Z,55.97
2023-04-18T18:04:28.679Z,56.53
2023-04-18T18:06:56.965Z,56.75
2023-04-18T18:09:25.043Z,56.88
2023-04-18T18:11:55.796Z,56.85
2023-04-18T18:14:28.088Z,56.66
2023-04-18T18:16:56.677Z,57.02
2023-04-18T18:19:26.852Z,56.87
2023-04-18T18:21:55.097Z,56.59
2023-04-18T18:26:53.230Z,56.40
2023-04-18T18:29:21.620Z,56.15
2023-04-18T18:31:50.139Z,56.06
2023-04-18T18:34:27.126Z,56.13
2023-04-18T18:36:56.931Z,56.10
2023-04-18T18:39:24.997Z,56.22
2023-04-18T18:41:53.176Z,56.10
2023-04-18T18:44:21.487Z,56.05
2023-04-18T18:46:49.560Z,55.98
2023-04-18T18:49:17.880Z,55.99
2023-04-18T18:51:46.899Z,56.00
2023-04-18T18:54:16.308Z,56.10
2023-04-18T18:56:45.274Z,56.09
2023-04-18T18:59:13.619Z,56.04
2023-04-18T19:01:41.950Z,56.06
2023-04-18T19:04:10.936Z,56.09
2023-04-18T19:06:39.363Z,56.36
2023-04-18T19:09:07.558Z,56.19
2023-04-18T19:11:37.143Z,56.10
2023-04-18T19:14:05.728Z,56.36
2023-04-18T19:16:35.954Z,56.39
2023-04-18T19:19:04.139Z,56.62
2023-04-18T19:21:32.401Z,56.84
2023-04-18T19:24:00.564Z,57.00
2023-04-18T19:26:28.650Z,56.77
2023-04-18T19:28:58.167Z,56.74
2023-04-18T19:31:26.268Z,57.02
2023-04-18T19:33:54.232Z,56.83
2023-04-18T19:36:23.335Z,56.93
2023-04-18T19:38:51.450Z,57.54
2023-04-18T19:41:19.525Z,57.24
2023-04-18T19:43:48.505Z,58.06
2023-04-18T19:46:18.051Z,57.55
2023-04-18T19:48:46.163Z,57.72
2023-04-18T19:51:14.449Z,58.08
2023-04-18T19:53:42.457Z,57.96
2023-04-18T19:56:12.502Z,58.12
2023-04-18T19:58:46.203Z,57.99
2023-04-18T20:01:15.524Z,58.09
2023-04-18T20:03:45.390Z,57.97
2023-04-18T20:06:14.209Z,58.96
2023-04-18T20:08:42.561Z,58.19
2023-04-18T20:11:11.872Z,58.89
2023-04-18T20:13:40.794Z,58.62
2023-04-18T20:16:10.958Z,58.75
2023-04-18T20:18:41.025Z,58.31
2023-04-18T20:21:11.540Z,58.58
2023-04-18T20:23:41.669Z,58.84
2023-04-18T20:26:10.059Z,58.45
2023-04-18T20:28:38.667Z,59.39
2023-04-18T20:31:07.218Z,59.00
2023-04-18T20:33:36.213Z,59.40
2023-04-18T20:36:05.476Z,59.88
2023-04-18T20:38:36.864Z,60.05
2023-04-18T20:41:04.838Z,59.23
2023-04-18T20:43:36.663Z,59.29
2023-04-18T20:46:05.045Z,59.41
2023-04-18T20:48:33.529Z,58.94
2023-04-18T20:51:01.673Z,58.54
2023-04-18T20:53:30.389Z,57.99
2023-04-18T20:56:01.939Z,57.69
2023-04-18T20:58:31.124Z,57.35
2023-04-18T21:00:59.399Z,56.72
2023-04-18T21:03:27.660Z,56.31
2023-04-18T21:05:56.183Z,56.20
2023-04-18T21:08:24.267Z,55.88
2023-04-18T21:10:52.521Z,55.74
2023-04-18T21:13:22.212Z,55.57
2023-04-18T21:15:51.885Z,55.49
2023-04-18T21:18:20.300Z,55.45
2023-04-18T21:20:48.338Z,55.32
2023-04-18T21:23:16.263Z,55.18
2023-04-18T21:25:44.508Z,54.92
2023-04-18T21:28:12.966Z,54.99
2023-04-18T21:30:42.662Z,55.19
2023-04-18T21:33:11.067Z,55.08
2023-04-18T21:35:39.430Z,55.03
2023-04-18T21:38:07.798Z,55.04
2023-04-18T21:40:35.987Z,54.78
2023-04-18T21:43:05.102Z,54.95
2023-04-18T21:45:33.759Z,55.16
2023-04-18T21:48:03.552Z,54.92
2023-04-18T21:50:31.660Z,55.30
2023-04-18T21:52:59.638Z,55.53
2023-04-18T21:55:28.125Z,55.53
2023-04-18T21:57:56.222Z,55.59
2023-04-18T22:00:24.505Z,55.63
2023-04-18T22:02:53.129Z,55.54
2023-04-18T22:05:22.925Z,55.53
2023-04-18T22:07:58.139Z,55.37
2023-04-18T22:10:26.993Z,55.47
2023-04-18T22:12:56.158Z,55.31
2023-04-18T22:15:27.185Z,55.18
2023-04-18T22:17:56.160Z,55.28
2023-04-18T22:20:26.865Z,55.26
2023-04-18T22:22:55.208Z,55.12
2023-04-18T22:25:23.481Z,54.76
2023-04-18T22:27:51.411Z,54.87
2023-04-18T22:30:19.433Z,54.78
2023-04-18T22:32:47.818Z,54.97
2023-04-18T22:35:16.961Z,54.54
2023-04-18T22:37:46.845Z,54.79
2023-04-18T22:40:16.501Z,54.92
2023-04-18T22:42:44.725Z,54.93
2023-04-18T22:45:13.594Z,54.83
2023-04-18T22:47:42.073Z,54.77
2023-04-18T22:50:10.740Z,54.85
2023-04-18T22:52:39.059Z,55.35
2023-04-18T22:55:09.886Z,55.64
2023-04-18T22:57:39.361Z,55.32
2023-04-18T23:00:10.076Z,55.46
2023-04-18T23:02:38.448Z,55.16
2023-04-18T23:05:08.145Z,55.38
2023-04-18T23:07:36.448Z,55.27
2023-04-18T23:10:06.484Z,55.04
2023-04-18T23:12:35.982Z,54.85
2023-04-18T23:15:04.559Z,54.45
2023-04-18T23:17:34.758Z,54.61
2023-04-18T23:20:03.809Z,54.26
2023-04-18T23:22:32.445Z,54.23
2023-04-18T23:25:00.580Z,54.26
2023-04-18T23:27:28.556Z,54.26
2023-04-18T23:29:58.690Z,54.07
2023-04-18T23:32:26.819Z,53.94
2023-04-18T23:34:54.849Z,54.03
2023-04-18T23:37:23.197Z,53.50
2023-04-18T23:39:51.197Z,53.63
2023-04-18T23:42:19.168Z,53.30
2023-04-18T23:44:47.517Z,53.64
2023-04-18T23:47:17.022Z,54.05
2023-04-18T23:49:45.828Z,53.89
2023-04-18T23:52:14.517Z,54.05
2023-04-18T23:54:42.592Z,53.80
2023-04-18T23:57:10.704Z,54.04
2023-04-18T23:59:39.000Z,54.30
